Time;durP1;ratioP1;P1;durP2;ratioP2;P2;SDS_P1;SDS_P2;PMS_P1;PMS_P2;Temp;Humidity;BMP_temperature;BMP_pressure;BME280_temperature;BME280_humidity;BME280_pressure;Samples;Min_cycle;Max_cycle;Signal;HPM_P1;HPM_P2
2023/04/06 00:00:39;;;;;;;36.05;32.83;;;0.30;99.90;;;;;;5063206;28;20152;-74
2023/04/06 00:03:06;;;;;;;35.22;31.92;;;0.40;99.90;;;;;;5065583;28;20049;-75
2023/04/06 00:05:33;;;;;;;33.90;30.42;;;0.30;99.90;;;;;;5062404;28;20048;-72
2023/04/06 00:08:00;;;;;;;35.67;32.50;;;0.20;99.90;;;;;;5062404;28;20715;-74
2023/04/06 00:10:27;;;;;;;35.58;32.20;;;0.20;99.90;;;;;;5062966;28;20060;-73
2023/04/06 00:12:56;;;;;;;35.55;31.83;;;0.20;99.90;;;;;;5060616;28;20124;-72
2023/04/06 00:15:23;;;;;;;33.38;30.58;;;0.30;99.90;;;;;;5063203;28;20044;-72
2023/04/06 00:17:50;;;;;;;34.60;31.23;;;0.30;99.90;;;;;;5070815;28;20371;-72
2023/04/06 00:20:18;;;;;;;34.88;31.58;;;0.30;99.90;;;;;;5066580;28;20037;-74
2023/04/06 00:22:45;;;;;;;34.03;31.13;;;0.30;99.90;;;;;;5058964;28;20502;-72
2023/04/06 00:25:12;;;;;;;34.92;31.75;;;0.40;99.90;;;;;;5049311;28;20140;-73
2023/04/06 00:27:39;;;;;;;34.50;31.23;;;0.50;99.90;;;;;;5070288;28;20151;-75
2023/04/06 00:30:06;;;;;;;36.45;32.88;;;0.60;99.90;;;;;;5063417;28;20121;-72
2023/04/06 00:32:35;;;;;;;34.17;31.17;;;0.60;99.90;;;;;;5068068;28;20047;-74
2023/04/06 00:35:03;;;;;;;33.85;30.98;;;0.70;99.90;;;;;;5063857;28;20359;-74
2023/04/06 00:37:30;;;;;;;33.97;31.05;;;0.70;99.90;;;;;;5067321;28;20403;-73
2023/04/06 00:39:57;;;;;;;35.05;31.48;;;0.60;99.90;;;;;;5072923;28;20054;-73
2023/04/06 00:42:27;;;;;;;34.88;31.52;;;0.60;99.90;;;;;;5048905;28;20438;-72
2023/04/06 00:44:56;;;;;;;34.05;31.05;;;0.60;99.90;;;;;;5063349;28;20401;-74
2023/04/06 00:47:25;;;;;;;34.63;31.30;;;0.60;99.90;;;;;;5064225;28;20560;-72
2023/04/06 00:49:54;;;;;;;34.92;32.00;;;0.60;99.90;;;;;;5062486;28;20068;-71
2023/04/06 00:52:21;;;;;;;34.72;31.73;;;0.60;99.90;;;;;;5065384;28;20055;-72
2023/04/06 00:54:50;;;;;;;35.55;32.08;;;0.60;99.90;;;;;;5060685;28;20041;-74
2023/04/06 00:57:19;;;;;;;33.42;30.50;;;0.70;99.90;;;;;;5060179;28;20051;-74
2023/04/06 00:59:52;;;;;;;35.58;32.38;;;0.70;99.90;;;;;;5064919;28;20072;-74
2023/04/06 01:02:19;;;;;;;35.38;31.88;;;0.60;99.90;;;;;;5062894;28;20049;-73
2023/04/06 01:04:49;;;;;;;34.10;31.10;;;0.60;99.90;;;;;;5066893;28;20101;-74
2023/04/06 01:07:24;;;;;;;35.08;31.98;;;0.60;99.90;;;;;;5048070;28;20048;-74
2023/04/06 01:10:25;;;;;;;33.63;30.52;;;0.60;99.90;;;;;;5049970;28;20092;-74
2023/04/06 01:12:56;;;;;;;33.97;30.88;;;0.70;99.90;;;;;;5067701;28;20606;-74
2023/04/06 01:15:49;;;;;;;33.80;30.65;;;0.90;99.90;;;;;;5067709;28;20036;-74
2023/04/06 01:18:27;;;;;;;34.13;31.23;;;0.90;99.90;;;;;;5059273;28;20049;-74
2023/04/06 01:21:08;;;;;;;35.47;32.25;;;0.90;99.90;;;;;;5064242;28;20501;-73
2023/04/06 01:23:35;;;;;;;37.28;33.75;;;0.80;99.90;;;;;;5064884;28;20131;-74
2023/04/06 01:26:02;;;;;;;35.20;31.77;;;0.80;99.90;;;;;;5067867;28;20048;-75
2023/04/06 01:28:30;;;;;;;34.67;31.65;;;0.70;99.90;;;;;;5066271;28;20048;-73
2023/04/06 01:31:16;;;;;;;36.08;32.63;;;0.70;99.90;;;;;;5064006;28;20051;-73
2023/04/06 01:33:47;;;;;;;36.42;33.15;;;0.50;99.90;;;;;;5062394;28;20082;-73
2023/04/06 01:36:17;;;;;;;35.78;32.63;;;0.30;99.90;;;;;;5046129;28;20049;-73
2023/04/06 01:38:47;;;;;;;37.15;33.90;;;0.20;99.90;;;;;;5056041;28;20082;-73
2023/04/06 01:41:17;;;;;;;37.63;33.90;;;0.20;99.90;;;;;;5066551;28;20066;-73
2023/04/06 01:43:54;;;;;;;38.83;35.15;;;0.00;99.90;;;;;;5062143;28;20052;-73
2023/04/06 01:46:24;;;;;;;37.33;33.75;;;-0.10;99.90;;;;;;5039544;28;20128;-72
2023/04/06 01:48:51;;;;;;;38.58;34.90;;;-0.20;99.90;;;;;;5045805;28;20049;-74
2023/04/06 01:51:30;;;;;;;39.20;35.30;;;-0.20;99.90;;;;;;5049667;28;20071;-73
2023/04/06 01:54:00;;;;;;;40.78;36.42;;;-0.20;99.90;;;;;;5068883;28;20048;-75
2023/04/06 01:56:37;;;;;;;39.45;35.63;;;-0.30;99.90;;;;;;5065066;28;20062;-75
2023/04/06 01:59:20;;;;;;;41.65;37.28;;;-0.30;99.90;;;;;;5064023;28;20059;-75
2023/04/06 02:01:47;;;;;;;39.42;35.65;;;-0.50;99.90;;;;;;5040547;28;20044;-73
2023/04/06 02:04:14;;;;;;;40.20;36.22;;;-0.50;99.90;;;;;;5056433;28;20572;-73
2023/04/06 02:06:42;;;;;;;41.03;37.10;;;-0.70;99.90;;;;;;5062954;28;21493;-72
2023/04/06 02:09:11;;;;;;;39.90;35.78;;;-0.60;99.90;;;;;;5064069;28;20099;-73
2023/04/06 02:11:38;;;;;;;39.00;35.42;;;-0.70;99.90;;;;;;5066632;28;20131;-74
2023/04/06 02:14:05;;;;;;;40.50;36.38;;;-0.70;99.90;;;;;;5056582;28;20044;-74
2023/04/06 02:16:38;;;;;;;39.72;35.70;;;-0.80;99.90;;;;;;5066433;28;20037;-73
2023/04/06 02:19:04;;;;;;;39.08;35.05;;;-0.80;99.90;;;;;;5056976;28;20037;-73
2023/04/06 02:21:31;;;;;;;39.50;35.40;;;-0.90;99.90;;;;;;5063462;28;20504;-73
2023/04/06 02:23:58;;;;;;;41.72;37.47;;;-0.90;99.90;;;;;;5075115;28;20082;-72
2023/04/06 02:26:25;;;;;;;40.45;36.17;;;-0.90;99.90;;;;;;5063571;28;20047;-73
2023/04/06 02:28:52;;;;;;;40.10;36.20;;;-1.00;99.90;;;;;;5058250;28;20072;-73
2023/04/06 02:31:19;;;;;;;41.38;37.20;;;-1.00;99.90;;;;;;5064285;28;20045;-72
2023/04/06 02:33:46;;;;;;;38.55;35.03;;;-1.00;99.90;;;;;;5048548;28;20094;-73
2023/04/06 02:36:14;;;;;;;39.33;35.15;;;-1.00;99.90;;;;;;5061693;28;20040;-72
2023/04/06 02:38:41;;;;;;;37.70;33.83;;;-1.00;99.90;;;;;;5062374;28;20033;-72
2023/04/06 02:41:08;;;;;;;37.40;33.72;;;-1.10;99.90;;;;;;5057277;28;20044;-73
2023/04/06 02:43:36;;;;;;;38.75;34.72;;;-1.00;99.90;;;;;;5071327;28;20604;-73
2023/04/06 02:46:09;;;;;;;38.03;34.20;;;-1.00;99.90;;;;;;5058403;28;20051;-73
2023/04/06 02:48:38;;;;;;;38.03;34.25;;;-1.10;99.90;;;;;;5064383;28;20580;-75
2023/04/06 02:51:05;;;;;;;37.22;33.45;;;-1.10;99.90;;;;;;5063823;28;20045;-72
2023/04/06 02:53:32;;;;;;;40.25;34.65;;;-1.10;99.90;;;;;;5052775;28;21480;-73
2023/04/06 02:55:59;;;;;;;36.42;32.88;;;-1.10;99.90;;;;;;5064858;28;20037;-73
2023/04/06 02:58:33;;;;;;;38.83;34.95;;;-1.10;99.90;;;;;;5060035;28;20394;-72
2023/04/06 03:01:00;;;;;;;36.92;33.42;;;-1.10;99.90;;;;;;5066848;28;20047;-73
2023/04/06 03:03:27;;;;;;;36.60;33.25;;;-1.20;99.90;;;;;;5063360;28;20612;-72
2023/04/06 03:05:58;;;;;;;37.08;33.33;;;-1.10;99.90;;;;;;5062042;28;20052;-73
2023/04/06 03:08:27;;;;;;;38.60;34.60;;;-1.00;99.90;;;;;;5062924;28;20053;-72
2023/04/06 03:10:54;;;;;;;39.20;35.15;;;-1.10;99.90;;;;;;5074706;28;20046;-72
2023/04/06 03:13:28;;;;;;;37.13;33.37;;;-1.10;99.90;;;;;;5061675;28;20477;-73
2023/04/06 03:15:57;;;;;;;37.65;33.95;;;-1.00;99.90;;;;;;5064176;28;20037;-73
2023/04/06 03:18:25;;;;;;;37.45;33.58;;;-1.10;99.90;;;;;;5064261;28;20658;-73
2023/04/06 03:20:55;;;;;;;37.55;33.70;;;-1.10;99.90;;;;;;5056345;28;20824;-73
2023/04/06 03:23:26;;;;;;;38.10;34.13;;;-1.10;99.90;;;;;;5056097;28;20086;-72
2023/04/06 03:25:57;;;;;;;39.88;35.75;;;-1.00;99.90;;;;;;5059660;28;20171;-73
2023/04/06 03:28:24;;;;;;;39.63;35.08;;;-1.00;99.90;;;;;;5058555;28;20045;-72
2023/04/06 03:31:03;;;;;;;38.38;34.67;;;-1.10;99.90;;;;;;5046730;28;20069;-74
2023/04/06 03:33:42;;;;;;;36.97;33.20;;;-1.20;99.90;;;;;;5058070;28;20127;-74
2023/04/06 03:36:14;;;;;;;37.67;34.08;;;-1.10;99.90;;;;;;5059788;28;20064;-72
2023/04/06 03:38:43;;;;;;;39.63;35.60;;;-1.10;99.90;;;;;;5053427;28;20090;-72
2023/04/06 03:41:12;;;;;;;36.60;33.20;;;-1.20;99.90;;;;;;5035052;28;20056;-72
2023/04/06 03:43:43;;;;;;;40.35;36.15;;;-1.20;99.90;;;;;;5065130;28;20440;-72
2023/04/06 03:46:10;;;;;;;38.85;34.70;;;-1.20;99.90;;;;;;5057318;28;20059;-72
2023/04/06 03:48:37;;;;;;;39.35;35.05;;;-1.20;99.90;;;;;;5062328;28;20570;-72
2023/04/06 03:51:05;;;;;;;39.53;35.35;;;-1.20;99.90;;;;;;5050601;28;20047;-72
2023/04/06 03:53:32;;;;;;;38.50;34.60;;;-1.30;99.90;;;;;;5053113;28;20053;-73
2023/04/06 03:55:59;;;;;;;40.05;35.97;;;-1.30;99.90;;;;;;5064537;28;20128;-72
2023/04/06 03:58:27;;;;;;;38.05;33.38;;;-1.40;99.90;;;;;;5060156;28;20063;-73
2023/04/06 04:00:54;;;;;;;37.55;33.78;;;-1.30;99.90;;;;;;5058325;28;20039;-72
2023/04/06 04:03:23;;;;;;;38.20;34.35;;;-1.40;99.90;;;;;;5060922;28;20055;-72
2023/04/06 04:05:50;;;;;;;40.67;34.88;;;-1.40;99.90;;;;;;5067425;28;20052;-72
2023/04/06 04:08:17;;;;;;;40.38;35.17;;;-1.40;99.90;;;;;;5071623;28;20056;-74
2023/04/06 04:10:47;;;;;;;40.30;36.10;;;-1.40;99.90;;;;;;5065462;28;20127;-73
2023/04/06 04:13:14;;;;;;;41.35;36.88;;;-1.40;99.90;;;;;;5065033;28;20048;-73
2023/04/06 04:15:44;;;;;;;39.58;35.33;;;-1.40;99.90;;;;;;5065404;28;20067;-73
2023/04/06 04:18:15;;;;;;;40.13;35.75;;;-1.40;99.90;;;;;;5071621;28;20121;-73
2023/04/06 04:20:42;;;;;;;42.03;37.60;;;-1.50;99.90;;;;;;5062997;28;20625;-72
2023/04/06 04:23:10;;;;;;;39.90;35.60;;;-1.50;99.90;;;;;;5063537;28;20094;-73
2023/04/06 04:25:37;;;;;;;40.53;36.10;;;-1.50;99.90;;;;;;5068792;28;20048;-74
2023/04/06 04:28:04;;;;;;;41.67;37.17;;;-1.50;99.90;;;;;;5069611;28;20048;-75
2023/04/06 04:30:31;;;;;;;40.40;36.17;;;-1.40;99.90;;;;;;5071758;28;20041;-75
2023/04/06 04:32:58;;;;;;;40.63;36.28;;;-1.40;99.90;;;;;;5071615;28;20072;-73
2023/04/06 04:35:26;;;;;;;41.15;36.90;;;-1.50;99.90;;;;;;5063728;28;20036;-75
2023/04/06 04:37:53;;;;;;;39.45;35.65;;;-1.50;99.90;;;;;;5063493;28;20528;-74
2023/04/06 04:40:20;;;;;;;43.05;38.72;;;-1.30;99.90;;;;;;5071969;28;20055;-75
2023/04/06 04:42:51;;;;;;;40.15;35.80;;;-1.30;99.90;;;;;;5065928;28;20068;-74
2023/04/06 04:45:25;;;;;;;40.92;36.65;;;-1.20;99.90;;;;;;5066155;28;20041;-75
2023/04/06 04:47:53;;;;;;;42.85;35.42;;;-1.40;99.90;;;;;;5044589;28;20162;-74
2023/04/06 04:50:23;;;;;;;41.22;36.88;;;-1.40;99.90;;;;;;5060089;28;20090;-74
2023/04/06 04:52:55;;;;;;;40.92;36.60;;;-1.40;99.90;;;;;;5068318;28;20044;-75
2023/04/06 04:55:24;;;;;;;40.40;35.20;;;-1.40;99.90;;;;;;5063237;28;20657;-75
2023/04/06 04:57:54;;;;;;;39.75;35.67;;;-1.30;99.90;;;;;;5074424;28;20045;-75
2023/04/06 05:00:27;;;;;;;40.65;35.83;;;-1.30;99.90;;;;;;5066840;28;20086;-73
2023/04/06 05:02:57;;;;;;;43.58;39.35;;;-1.20;99.90;;;;;;5046574;28;20128;-72
2023/04/06 05:05:27;;;;;;;45.10;41.03;;;-1.40;99.90;;;;;;5063971;28;20053;-72
2023/04/06 05:07:54;;;;;;;45.22;40.20;;;-1.50;99.90;;;;;;5066588;28;20044;-72
2023/04/06 05:10:30;;;;;;;44.28;40.08;;;-1.60;99.90;;;;;;5075932;28;20097;-72
2023/04/06 05:13:00;;;;;;;47.08;42.67;;;-1.50;99.90;;;;;;5062706;28;20563;-74
2023/04/06 05:15:27;;;;;;;47.25;42.45;;;-1.50;99.90;;;;;;5061784;28;20146;-75
2023/04/06 05:18:01;;;;;;;46.33;41.55;;;-1.40;99.90;;;;;;5067462;28;20045;-74
2023/04/06 05:20:31;;;;;;;47.97;43.13;;;-1.40;99.90;;;;;;5065883;28;20041;-74
2023/04/06 05:22:59;;;;;;;47.63;42.88;;;-1.40;99.90;;;;;;5065832;28;20071;-74
2023/04/06 05:25:26;;;;;;;48.83;43.60;;;-1.30;99.90;;;;;;5064382;28;20040;-75
2023/04/06 05:27:56;;;;;;;47.40;42.80;;;-1.40;99.90;;;;;;5060292;28;20040;-73
2023/04/06 05:30:28;;;;;;;47.80;42.97;;;-1.30;99.90;;;;;;5065398;28;20242;-73
2023/04/06 05:32:55;;;;;;;48.97;43.92;;;-1.40;99.90;;;;;;5048550;28;20044;-73
2023/04/06 05:35:24;;;;;;;48.38;43.53;;;-1.30;99.90;;;;;;5064444;28;20051;-75
2023/04/06 05:37:55;;;;;;;46.33;41.25;;;-1.20;99.90;;;;;;5066437;28;20066;-73
2023/04/06 05:40:25;;;;;;;47.58;42.78;;;-1.00;99.90;;;;;;5065760;28;20041;-74
2023/04/06 05:42:52;;;;;;;45.30;40.75;;;-0.90;99.90;;;;;;5068341;28;20040;-74
2023/04/06 05:45:21;;;;;;;44.67;40.53;;;-0.80;99.90;;;;;;5060823;28;20056;-75
2023/04/06 05:47:51;;;;;;;45.42;41.13;;;-0.80;99.90;;;;;;5066103;28;20058;-74
2023/04/06 05:50:23;;;;;;;44.08;39.58;;;-0.70;99.90;;;;;;5068185;28;20099;-74
2023/04/06 05:52:50;;;;;;;44.80;40.53;;;-0.70;99.90;;;;;;5068927;28;20382;-74
2023/04/06 05:55:20;;;;;;;46.47;41.85;;;-0.50;99.90;;;;;;5070691;28;20131;-75
2023/04/06 05:57:53;;;;;;;46.63;41.80;;;-0.60;99.90;;;;;;5062454;28;20596;-75
2023/04/06 06:00:21;;;;;;;46.78;41.70;;;-0.60;99.90;;;;;;5065554;28;20655;-75
2023/04/06 06:02:58;;;;;;;49.10;44.55;;;-0.60;99.90;;;;;;5060822;28;20071;-75
2023/04/06 06:05:29;;;;;;;48.83;44.08;;;-0.50;99.90;;;;;;5050774;28;20068;-75
2023/04/06 06:08:02;;;;;;;50.80;45.35;;;-0.50;99.90;;;;;;5061883;28;20131;-73
2023/04/06 06:10:29;;;;;;;45.72;41.60;;;-0.30;99.90;;;;;;5064455;28;20075;-73
2023/04/06 06:12:57;;;;;;;46.88;42.45;;;-0.20;99.90;;;;;;5064692;28;20047;-75
2023/04/06 06:15:25;;;;;;;47.55;43.10;;;-0.10;99.90;;;;;;5065772;28;20090;-73
2023/04/06 06:17:52;;;;;;;46.05;41.92;;;0.10;99.90;;;;;;5061482;28;20612;-73
2023/04/06 06:20:19;;;;;;;44.28;40.05;;;0.20;99.90;;;;;;5061342;28;20498;-73
2023/04/06 06:22:47;;;;;;;44.42;40.33;;;0.40;99.90;;;;;;5064083;28;20485;-74
2023/04/06 06:25:17;;;;;;;44.08;40.17;;;0.50;99.90;;;;;;5061562;28;20044;-73
2023/04/06 06:27:46;;;;;;;43.75;40.00;;;0.70;99.90;;;;;;5065517;28;20071;-72
2023/04/06 06:30:15;;;;;;;41.47;37.95;;;0.90;99.90;;;;;;5059427;28;20094;-73
2023/04/06 06:32:43;;;;;;;42.95;38.97;;;1.10;99.90;;;;;;5069659;28;20704;-73
2023/04/06 06:35:10;;;;;;;38.88;35.67;;;1.40;99.90;;;;;;5072045;28;20048;-74
2023/04/06 06:37:37;;;;;;;40.92;37.28;;;1.60;99.90;;;;;;5062579;28;20055;-73
2023/04/06 06:40:05;;;;;;;38.53;35.35;;;1.80;99.90;;;;;;5065375;28;20646;-72
2023/04/06 06:42:34;;;;;;;41.45;37.55;;;2.00;99.90;;;;;;5057992;28;20044;-73
2023/04/06 06:45:21;;;;;;;38.35;34.92;;;2.20;99.90;;;;;;5055493;28;20047;-73
2023/04/06 06:47:48;;;;;;;39.25;35.50;;;2.30;99.90;;;;;;5054221;28;20037;-73
2023/04/06 06:50:15;;;;;;;38.50;35.35;;;2.40;99.90;;;;;;5058990;28;20033;-75
2023/04/06 06:52:42;;;;;;;36.72;33.67;;;2.50;99.90;;;;;;5060689;28;20070;-73
2023/04/06 06:55:10;;;;;;;38.45;35.25;;;2.70;99.90;;;;;;5057646;28;20056;-74
2023/04/06 06:57:38;;;;;;;37.75;34.60;;;2.80;99.90;;;;;;5065555;28;20048;-72
2023/04/06 07:00:07;;;;;;;38.85;35.40;;;2.90;99.90;;;;;;5068477;28;20045;-73
2023/04/06 07:02:35;;;;;;;39.28;36.00;;;3.00;99.90;;;;;;5068926;28;20051;-73
2023/04/06 07:05:03;;;;;;;37.85;34.85;;;3.10;99.90;;;;;;5064548;28;20045;-73
2023/04/06 07:07:42;;;;;;;38.70;35.80;;;3.20;99.90;;;;;;5062298;28;20505;-73
2023/04/06 07:10:09;;;;;;;43.25;39.78;;;3.40;99.90;;;;;;5062460;28;20517;-73
2023/04/06 07:12:37;;;;;;;40.38;37.28;;;3.70;99.90;;;;;;5046246;28;20135;-73
2023/04/06 07:15:05;;;;;;;42.38;39.17;;;4.10;99.90;;;;;;5060193;28;20075;-74
2023/04/06 07:17:33;;;;;;;40.58;37.58;;;4.30;99.90;;;;;;5059849;28;20502;-74
2023/04/06 07:20:00;;;;;;;41.95;38.83;;;4.50;99.90;;;;;;5069147;28;20047;-74
2023/04/06 07:22:26;;;;;;;45.28;41.90;;;4.90;99.90;;;;;;5069707;28;20135;-74
2023/04/06 07:24:53;;;;;;;40.88;37.58;;;5.20;99.90;;;;;;5045785;28;20040;-73
2023/04/06 07:27:20;;;;;;;42.90;39.42;;;5.50;99.90;;;;;;5064514;28;20548;-74
2023/04/06 07:29:47;;;;;;;42.45;39.35;;;5.80;99.90;;;;;;5058861;28;20047;-74
2023/04/06 07:32:14;;;;;;;42.47;39.47;;;5.80;99.90;;;;;;5053168;28;20040;-74
2023/04/06 07:34:41;;;;;;;47.03;43.67;;;5.70;99.90;;;;;;5064337;28;21233;-73
2023/04/06 07:37:08;;;;;;;45.17;41.78;;;5.90;99.90;;;;;;5047211;28;20147;-73
2023/04/06 07:39:35;;;;;;;45.90;42.38;;;5.80;99.90;;;;;;5060331;28;20045;-72
2023/04/06 07:42:02;;;;;;;45.83;42.38;;;6.00;99.90;;;;;;5067621;28;20048;-73
2023/04/06 07:44:28;;;;;;;47.90;44.25;;;6.20;99.90;;;;;;5052296;28;20111;-74
2023/04/06 07:46:56;;;;;;;46.35;43.05;;;6.50;99.90;;;;;;5064518;28;20192;-73
2023/04/06 07:49:23;;;;;;;48.08;44.85;;;6.60;99.90;;;;;;5070121;28;20052;-73
2023/04/06 07:51:50;;;;;;;46.10;42.78;;;6.60;99.90;;;;;;5071466;28;20494;-74
2023/04/06 07:54:16;;;;;;;46.95;43.55;;;6.70;99.90;;;;;;5072406;28;20085;-73
2023/04/06 07:56:44;;;;;;;46.15;42.95;;;6.90;99.90;;;;;;5064999;28;20036;-73
2023/04/06 07:59:11;;;;;;;47.17;43.72;;;6.90;99.90;;;;;;5064284;28;20048;-73
2023/04/06 08:01:38;;;;;;;46.10;42.60;;;6.80;99.90;;;;;;5066076;28;20043;-73
2023/04/06 08:04:05;;;;;;;46.92;43.65;;;7.20;99.90;;;;;;5072560;28;20060;-73
2023/04/06 08:06:31;;;;;;;46.80;43.45;;;7.70;99.90;;;;;;5068790;28;20110;-74
2023/04/06 08:08:58;;;;;;;45.67;42.35;;;7.70;99.90;;;;;;5077502;28;20044;-75
2023/04/06 08:11:26;;;;;;;44.67;41.45;;;7.80;99.90;;;;;;5064562;28;20071;-74
2023/04/06 08:13:54;;;;;;;45.15;41.53;;;7.70;99.90;;;;;;5066603;28;20047;-74
2023/04/06 08:16:20;;;;;;;44.92;41.83;;;7.80;99.90;;;;;;5068301;28;20557;-74
2023/04/06 08:18:47;;;;;;;46.08;42.67;;;8.10;99.90;;;;;;5068281;28;20123;-74
2023/04/06 08:21:14;;;;;;;46.30;42.75;;;8.30;99.90;;;;;;5067260;28;20297;-75
2023/04/06 08:23:41;;;;;;;45.58;42.15;;;8.40;99.90;;;;;;5062428;28;20037;-74
2023/04/06 08:26:08;;;;;;;45.67;42.38;;;8.50;99.90;;;;;;5078879;28;20044;-74
2023/04/06 08:28:35;;;;;;;44.88;41.42;;;8.70;99.90;;;;;;5068117;28;20481;-75
2023/04/06 08:31:05;;;;;;;43.50;40.33;;;8.80;99.90;;;;;;5062874;28;20044;-73
2023/04/06 08:33:36;;;;;;;46.15;42.53;;;8.70;99.90;;;;;;5069258;28;20062;-75
2023/04/06 08:36:13;;;;;;;52.60;49.17;;;9.00;99.90;;;;;;5064712;28;20075;-75
2023/04/06 08:38:41;;;;;;;52.05;48.45;;;9.00;99.90;;;;;;5065086;28;20155;-75
2023/04/06 08:41:12;;;;;;;53.60;49.58;;;9.10;99.90;;;;;;5074131;28;20139;-74
2023/04/06 08:44:00;;;;;;;52.55;48.95;;;9.00;99.90;;;;;;5072661;28;20514;-74
2023/04/06 08:46:30;;;;;;;52.65;48.85;;;9.00;99.90;;;;;;5074604;28;20077;-75
2023/04/06 08:48:59;;;;;;;56.30;52.47;;;9.30;99.90;;;;;;5063863;28;20044;-76
2023/04/06 08:51:33;;;;;;;54.75;50.95;;;9.20;99.90;;;;;;5059996;28;20048;-74
2023/04/06 08:54:00;;;;;;;55.33;51.70;;;9.50;99.90;;;;;;5048514;28;20440;-76
2023/04/06 08:56:28;;;;;;;53.00;49.40;;;9.50;99.90;;;;;;5072656;28;20036;-74
2023/04/06 08:58:55;;;;;;;53.35;49.75;;;9.80;99.90;;;;;;5063569;28;20135;-74
2023/04/06 09:01:27;;;;;;;54.03;50.20;;;9.80;99.90;;;;;;5059636;28;20029;-73
2023/04/06 09:04:04;;;;;;;54.00;50.20;;;9.70;99.90;;;;;;5061615;28;20043;-74
2023/04/06 09:06:36;;;;;;;53.90;50.28;;;9.80;99.90;;;;;;5063681;28;20131;-73
2023/04/06 09:09:03;;;;;;;53.80;49.58;;;10.30;99.90;;;;;;5064539;28;20743;-73
2023/04/06 09:11:45;;;;;;;54.88;50.90;;;10.30;99.90;;;;;;5065454;28;20040;-75
2023/04/06 09:14:12;;;;;;;52.15;48.20;;;10.20;99.90;;;;;;5061553;28;20749;-74
2023/04/06 09:16:41;;;;;;;52.80;49.00;;;10.20;99.90;;;;;;5070483;28;20131;-75
2023/04/06 09:19:09;;;;;;;55.90;52.10;;;10.00;99.90;;;;;;5063493;28;20525;-75
2023/04/06 09:21:36;;;;;;;54.33;50.70;;;10.10;99.90;;;;;;5072266;28;20127;-75
2023/04/06 09:24:04;;;;;;;54.90;50.72;;;10.20;99.90;;;;;;5063517;28;20140;-75
2023/04/06 09:26:33;;;;;;;57.28;53.38;;;10.40;99.90;;;;;;5063877;28;20037;-73
2023/04/06 09:29:01;;;;;;;57.22;52.40;;;10.50;99.90;;;;;;5064850;28;20048;-73
2023/04/06 09:31:32;;;;;;;56.92;52.60;;;10.20;99.90;;;;;;5060949;28;20525;-75
2023/04/06 09:34:00;;;;;;;57.00;52.72;;;10.20;99.90;;;;;;5066593;28;20044;-73
2023/04/06 09:36:38;;;;;;;53.78;49.92;;;10.20;99.90;;;;;;5067423;28;20132;-73
2023/04/06 09:39:05;;;;;;;53.05;49.05;;;10.20;99.90;;;;;;5059886;28;20045;-74
2023/04/06 09:41:41;;;;;;;55.38;51.10;;;10.20;99.90;;;;;;5063396;28;20048;-74
2023/04/06 09:44:09;;;;;;;55.80;51.78;;;10.30;99.90;;;;;;5056277;28;20036;-75
2023/04/06 09:47:04;;;;;;;56.00;51.90;;;10.40;99.90;;;;;;5063209;28;20068;-75
2023/04/06 09:49:34;;;;;;;57.70;53.13;;;10.60;99.90;;;;;;5054610;28;20109;-75
2023/04/06 09:52:11;;;;;;;55.40;51.25;;;10.60;99.90;;;;;;5040627;28;20045;-76
2023/04/06 09:54:38;;;;;;;55.58;51.17;;;10.80;99.90;;;;;;5057206;28;20076;-75
2023/04/06 09:57:08;;;;;;;55.40;51.25;;;10.70;99.90;;;;;;5054732;28;20033;-75
2023/04/06 09:59:38;;;;;;;54.28;50.25;;;11.00;99.90;;;;;;5064754;28;20044;-75
2023/04/06 10:02:50;;;;;;;54.53;50.60;;;11.20;99.90;;;;;;5061819;28;20032;-74
2023/04/06 10:05:58;;;;;;;54.42;50.42;;;11.00;99.90;;;;;;5064486;28;20522;-74
2023/04/06 10:08:28;;;;;;;55.83;51.58;;;11.00;99.90;;;;;;4973272;28;20051;-74
2023/04/06 10:11:00;;;;;;;56.78;52.53;;;11.10;99.90;;;;;;5050372;28;20048;-74
2023/04/06 10:13:27;;;;;;;54.55;50.72;;;11.40;99.90;;;;;;5064835;28;20056;-73
2023/04/06 10:15:54;;;;;;;54.70;50.58;;;11.60;99.90;;;;;;5059313;28;20094;-73
2023/04/06 10:18:21;;;;;;;56.53;52.05;;;11.20;99.90;;;;;;5064372;28;20699;-74
2023/04/06 10:21:10;;;;;;;56.38;52.17;;;10.90;99.90;;;;;;5065665;28;20072;-74
2023/04/06 10:23:43;;;;;;;55.05;50.78;;;11.20;99.90;;;;;;5043297;28;20059;-75
2023/04/06 10:26:16;;;;;;;56.20;51.60;;;11.40;99.90;;;;;;5056415;28;20055;-73
2023/04/06 10:28:45;;;;;;;56.92;52.97;;;11.70;99.90;;;;;;5068020;28;20074;-73
2023/04/06 10:31:12;;;;;;;57.85;53.70;;;11.90;99.90;;;;;;5059061;28;20477;-74
2023/04/06 10:33:52;;;;;;;58.45;54.05;;;11.70;99.90;;;;;;5064475;28;20044;-74
2023/04/06 10:36:25;;;;;;;58.08;53.95;;;11.60;99.90;;;;;;5060374;28;20052;-73
2023/04/06 10:39:01;;;;;;;58.15;54.15;;;11.70;99.90;;;;;;5059820;28;20044;-73
2023/04/06 10:41:53;;;;;;;60.30;55.70;;;11.60;99.90;;;;;;5066607;28;20044;-72
2023/04/06 10:44:24;;;;;;;60.58;56.15;;;12.00;99.90;;;;;;5076085;28;20044;-73
2023/04/06 10:47:01;;;;;;;62.25;57.78;;;12.10;99.90;;;;;;5078129;28;20075;-73
2023/04/06 10:49:28;;;;;;;62.92;58.17;;;11.90;99.90;;;;;;5087788;28;20190;-73
2023/04/06 10:51:56;;;;;;;62.83;58.15;;;12.10;99.90;;;;;;5079417;28;20039;-74
2023/04/06 10:54:25;;;;;;;63.80;59.25;;;12.20;99.90;;;;;;5063401;28;20056;-75
2023/04/06 10:56:52;;;;;;;61.55;57.00;;;12.30;99.90;;;;;;5079586;28;20093;-74
2023/04/06 10:59:21;;;;;;;63.72;58.63;;;12.40;99.90;;;;;;5082345;28;20767;-73
2023/04/06 11:01:48;;;;;;;65.03;59.95;;;12.40;99.90;;;;;;5062125;28;20038;-73
2023/04/06 11:04:17;;;;;;;62.28;57.22;;;12.50;99.90;;;;;;5055844;28;20043;-72
2023/04/06 11:06:49;;;;;;;65.65;60.22;;;12.30;99.90;;;;;;5077107;28;20071;-73
2023/04/06 11:09:27;;;;;;;63.95;58.88;;;12.40;99.90;;;;;;5080524;28;20090;-73
2023/04/06 11:11:55;;;;;;;64.15;59.03;;;12.50;99.90;;;;;;5078751;28;20711;-73
2023/04/06 11:14:23;;;;;;;63.20;58.28;;;12.40;99.90;;;;;;5070199;28;20051;-74
2023/04/06 11:16:50;;;;;;;62.92;57.58;;;12.50;99.90;;;;;;5056672;28;20050;-74
2023/04/06 11:19:18;;;;;;;61.25;56.00;;;12.50;99.90;;;;;;5076275;28;20044;-74
2023/04/06 11:21:47;;;;;;;59.88;55.25;;;12.60;99.90;;;;;;5066837;28;20539;-74
2023/04/06 11:24:15;;;;;;;65.47;60.58;;;12.70;99.90;;;;;;5066039;28;20205;-74
2023/04/06 11:26:50;;;;;;;60.92;56.17;;;12.60;99.90;;;;;;5060411;28;20172;-74
2023/04/06 11:29:19;;;;;;;62.72;57.60;;;12.40;99.90;;;;;;5074665;28;20557;-74
2023/04/06 11:31:50;;;;;;;68.32;62.22;;;12.40;99.90;;;;;;5076071;28;20139;-73
2023/04/06 11:34:22;;;;;;;74.05;67.55;;;12.60;99.90;;;;;;5043974;28;20048;-74
2023/04/06 11:36:56;;;;;;;63.35;58.30;;;12.80;99.90;;;;;;5078070;28;21565;-73
2023/04/06 11:39:25;;;;;;;65.38;60.15;;;12.60;99.90;;;;;;5077829;28;20048;-73
2023/04/06 11:42:02;;;;;;;63.00;58.03;;;12.60;99.90;;;;;;5085314;28;20044;-73
2023/04/06 11:44:42;;;;;;;64.57;59.15;;;12.80;99.90;;;;;;5076780;28;20040;-72
2023/04/06 11:47:11;;;;;;;65.13;59.90;;;12.70;99.90;;;;;;5080868;28;20063;-74
2023/04/06 11:49:40;;;;;;;63.63;58.70;;;12.70;99.90;;;;;;5062098;28;20098;-74
2023/04/06 11:52:20;;;;;;;67.85;62.03;;;12.70;99.90;;;;;;5060872;28;20735;-73
2023/04/06 11:54:48;;;;;;;66.05;60.50;;;12.70;99.90;;;;;;5066978;28;20082;-73
2023/04/06 11:57:19;;;;;;;66.63;60.92;;;12.70;99.90;;;;;;5068612;28;20055;-73
2023/04/06 11:59:46;;;;;;;66.25;60.63;;;12.70;99.90;;;;;;5062191;28;20130;-73
2023/04/06 12:02:13;;;;;;;66.60;60.55;;;12.60;99.90;;;;;;5071039;28;20549;-73
2023/04/06 12:04:40;;;;;;;66.55;61.05;;;12.30;99.90;;;;;;5064686;28;20040;-73
2023/04/06 12:07:07;;;;;;;63.25;58.10;;;12.40;99.90;;;;;;5070297;28;20047;-73
2023/04/06 12:09:35;;;;;;;63.00;57.90;;;12.90;99.90;;;;;;5081842;28;20497;-73
2023/04/06 12:12:03;;;;;;;63.83;58.85;;;12.90;99.90;;;;;;5078401;28;20048;-74
2023/04/06 12:14:30;;;;;;;62.45;57.30;;;13.10;99.90;;;;;;5079297;28;20062;-72
2023/04/06 12:16:58;;;;;;;63.17;57.97;;;13.10;99.90;;;;;;5054967;28;20040;-73
2023/04/06 12:19:25;;;;;;;61.72;56.78;;;13.20;99.90;;;;;;5055110;28;20400;-73
2023/04/06 12:21:57;;;;;;;63.70;58.22;;;13.30;99.90;;;;;;5085260;28;20740;-73
2023/04/06 12:24:24;;;;;;;61.80;56.40;;;13.20;99.90;;;;;;5060130;28;20671;-74
2023/04/06 12:26:51;;;;;;;63.60;58.40;;;13.20;99.90;;;;;;5084653;28;20048;-73
2023/04/06 12:29:28;;;;;;;65.63;59.97;;;13.20;99.90;;;;;;5053287;28;20048;-74
2023/04/06 12:31:56;;;;;;;65.38;60.08;;;13.30;99.90;;;;;;5075086;28;20139;-73
2023/04/06 12:34:22;;;;;;;65.13;60.00;;;13.40;99.90;;;;;;5058583;28;20040;-74
2023/04/06 12:36:49;;;;;;;65.20;59.92;;;13.30;99.90;;;;;;5078079;28;20044;-73
2023/04/06 12:39:18;;;;;;;65.53;59.90;;;13.10;99.90;;;;;;5062154;28;20079;-73
2023/04/06 12:41:47;;;;;;;68.55;62.70;;;13.00;99.90;;;;;;5061700;28;20044;-73
2023/04/06 12:44:14;;;;;;;65.22;59.80;;;13.30;99.90;;;;;;5058916;28;20048;-72